Time;durP1;ratioP1;P1;durP2;ratioP2;P2;SDS_P1;SDS_P2;PMS_P1;PMS_P2;Temp;Humidity;BMP_temperature;BMP_pressure;BME280_temperature;BME280_humidity;BME280_pressure;Samples;Min_cycle;Max_cycle;Signal;HPM_P1;HPM_P2
2021/05/31 00:02:21;;;;;;;0.20;0.20;;;10.60;99.90;;;;;;5109620;28;20659;-69
2021/05/31 00:04:47;;;;;;;0.10;0.10;;;10.50;99.90;;;;;;5109643;28;20181;-67
2021/05/31 00:07:18;;;;;;;0.38;0.38;;;10.30;99.90;;;;;;5109469;28;20195;-69
2021/05/31 00:09:45;;;;;;;1.83;0.45;;;10.20;99.90;;;;;;5109062;28;20691;-69
2021/05/31 00:12:16;;;;;;;1.40;1.33;;;10.20;99.90;;;;;;5109357;28;20218;-70
2021/05/31 00:14:44;;;;;;;0.20;0.20;;;10.00;99.90;;;;;;5109447;28;20224;-70
2021/05/31 00:17:11;;;;;;;0.20;0.20;;;10.00;99.90;;;;;;5109542;28;20178;-70
2021/05/31 00:19:37;;;;;;;0.20;0.20;;;10.10;99.90;;;;;;5109420;28;20198;-70
2021/05/31 00:22:04;;;;;;;0.25;0.25;;;10.10;99.90;;;;;;5109496;28;20170;-69
2021/05/31 00:24:30;;;;;;;0.45;0.45;;;10.00;99.90;;;;;;5109440;28;20163;-70
2021/05/31 00:26:56;;;;;;;5.05;1.02;;;9.80;99.90;;;;;;5109345;28;20207;-69
2021/05/31 00:29:24;;;;;;;0.10;0.10;;;9.80;99.90;;;;;;5109405;28;20210;-70
2021/05/31 00:31:51;;;;;;;0.20;0.20;;;9.70;99.90;;;;;;5109432;28;20151;-70
2021/05/31 00:34:18;;;;;;;0.10;0.10;;;9.60;99.90;;;;;;5109458;28;20160;-70
2021/05/31 00:36:44;;;;;;;0.25;0.25;;;9.40;99.90;;;;;;5091215;28;20171;-70
2021/05/31 00:39:10;;;;;;;0.98;0.98;;;9.20;99.90;;;;;;5109313;28;20194;-70
2021/05/31 00:41:36;;;;;;;0.10;0.10;;;9.10;99.90;;;;;;5109277;28;20213;-69
2021/05/31 00:44:03;;;;;;;0.50;0.50;;;8.90;99.90;;;;;;5087682;28;20215;-70
2021/05/31 00:46:29;;;;;;;0.10;0.10;;;8.80;99.90;;;;;;5088982;28;20253;-70
2021/05/31 00:48:55;;;;;;;0.52;0.50;;;8.90;99.90;;;;;;5088949;28;20190;-70
2021/05/31 00:51:21;;;;;;;1.20;0.80;;;8.90;99.90;;;;;;5088930;28;20161;-70
2021/05/31 00:53:48;;;;;;;0.32;0.32;;;8.90;99.90;;;;;;5088043;28;20184;-70
2021/05/31 00:56:15;;;;;;;0.30;0.30;;;8.90;99.90;;;;;;5087647;28;20161;-69
2021/05/31 00:58:41;;;;;;;0.52;0.52;;;8.90;99.90;;;;;;5090066;28;20186;-69
2021/05/31 01:01:07;;;;;;;0.10;0.10;;;8.80;99.90;;;;;;5092768;28;20187;-70
2021/05/31 01:03:34;;;;;;;0.73;0.73;;;8.80;99.90;;;;;;5092491;28;20163;-69
2021/05/31 01:06:05;;;;;;;0.22;0.22;;;8.70;99.90;;;;;;5091223;28;20656;-69
2021/05/31 01:08:44;;;;;;;0.98;0.98;;;8.60;99.90;;;;;;5092598;28;20160;-70
2021/05/31 01:11:35;;;;;;;0.15;0.15;;;8.40;99.90;;;;;;5092649;28;20195;-70
2021/05/31 01:14:16;;;;;;;0.35;0.35;;;8.40;99.90;;;;;;5092588;28;20217;-69
2021/05/31 01:16:51;;;;;;;0.10;0.10;;;8.30;99.90;;;;;;5091266;28;20229;-69
2021/05/31 01:19:43;;;;;;;0.40;0.40;;;8.30;99.90;;;;;;5091146;28;20171;-69
2021/05/31 01:22:12;;;;;;;1.35;1.35;;;8.30;99.90;;;;;;5092386;28;20249;-69
2021/05/31 01:24:40;;;;;;;0.25;0.25;;;8.40;99.90;;;;;;5092375;28;20163;-69
2021/05/31 01:27:17;;;;;;;0.10;0.10;;;8.30;99.90;;;;;;5092314;28;20207;-69
2021/05/31 01:30:06;;;;;;;2.40;0.85;;;8.30;99.90;;;;;;5092332;28;20160;-69
2021/05/31 01:32:46;;;;;;;0.52;0.30;;;8.30;99.90;;;;;;5089399;28;20235;-69
2021/05/31 01:35:17;;;;;;;0.57;0.57;;;8.30;99.90;;;;;;5090927;28;20160;-69
2021/05/31 01:37:44;;;;;;;0.17;0.17;;;8.20;99.90;;;;;;5090014;28;20167;-69
2021/05/31 01:40:14;;;;;;;0.47;0.47;;;8.10;99.90;;;;;;5091790;28;20231;-70
2021/05/31 01:42:41;;;;;;;0.20;0.20;;;8.10;99.90;;;;;;5091806;28;20190;-70
2021/05/31 01:45:10;;;;;;;0.55;0.55;;;8.10;99.90;;;;;;5106076;28;20588;-70
2021/05/31 01:47:37;;;;;;;0.20;0.20;;;8.00;99.90;;;;;;5093992;28;20163;-70
2021/05/31 01:50:05;;;;;;;0.45;0.45;;;8.00;99.90;;;;;;5112216;28;20159;-70
2021/05/31 01:52:32;;;;;;;0.10;0.10;;;7.90;99.90;;;;;;5112287;28;20191;-69
2021/05/31 01:54:59;;;;;;;1.45;0.95;;;7.90;99.90;;;;;;5112199;28;20147;-69
2021/05/31 01:57:25;;;;;;;0.32;0.32;;;7.90;99.90;;;;;;5112065;28;20200;-70
2021/05/31 01:59:52;;;;;;;0.65;0.65;;;7.80;99.90;;;;;;5112092;28;20159;-69
2021/05/31 02:02:19;;;;;;;0.35;0.32;;;7.90;99.90;;;;;;5111929;28;20191;-70
2021/05/31 02:04:45;;;;;;;0.30;0.30;;;7.80;99.90;;;;;;5112022;28;20181;-69
2021/05/31 02:07:12;;;;;;;0.10;0.10;;;7.80;99.90;;;;;;5111850;28;20190;-69
2021/05/31 02:09:38;;;;;;;0.35;0.35;;;7.80;99.90;;;;;;5110926;28;20156;-69
2021/05/31 02:12:06;;;;;;;0.43;0.43;;;7.90;99.90;;;;;;5111476;28;20158;-70
2021/05/31 02:14:54;;;;;;;0.25;0.25;;;7.80;99.90;;;;;;5111828;28;20160;-69
2021/05/31 02:17:41;;;;;;;0.15;0.15;;;7.90;99.90;;;;;;5111786;28;20157;-70
2021/05/31 02:20:11;;;;;;;0.05;0.05;;;8.00;99.90;;;;;;5111729;28;20164;-68
2021/05/31 02:22:43;;;;;;;0.17;0.17;;;7.90;99.90;;;;;;5111511;28;20187;-69
2021/05/31 02:25:12;;;;;;;0.10;0.10;;;7.90;99.90;;;;;;5111405;28;20151;-68
2021/05/31 02:27:38;;;;;;;0.10;0.10;;;7.90;99.90;;;;;;5111551;28;20156;-69
2021/05/31 02:30:06;;;;;;;0.43;0.43;;;7.80;99.90;;;;;;5111568;28;20178;-70
2021/05/31 02:32:33;;;;;;;0.10;0.10;;;7.80;99.90;;;;;;5093089;28;20195;-69
2021/05/31 02:35:00;;;;;;;0.17;0.17;;;7.60;99.90;;;;;;5111087;28;20151;-70
2021/05/31 02:37:37;;;;;;;0.70;0.70;;;7.60;99.90;;;;;;5111298;28;20167;-68
2021/05/31 02:40:05;;;;;;;0.20;0.20;;;7.60;99.90;;;;;;5111093;28;20189;-68
2021/05/31 02:43:03;;;;;;;0.38;0.38;;;7.50;99.90;;;;;;5110976;28;20194;-69
2021/05/31 02:45:30;;;;;;;0.10;0.10;;;7.40;99.90;;;;;;5090777;28;20250;-70
2021/05/31 02:47:58;;;;;;;0.28;0.28;;;7.30;99.90;;;;;;5092753;28;20172;-69
2021/05/31 02:50:28;;;;;;;0.30;0.30;;;7.30;99.90;;;;;;5111047;28;20174;-69
2021/05/31 02:52:58;;;;;;;3.92;0.55;;;7.30;99.90;;;;;;5110641;28;20270;-70
2021/05/31 02:55:27;;;;;;;0.50;0.50;;;7.40;99.90;;;;;;5092542;28;20646;-70
2021/05/31 02:57:53;;;;;;;0.75;0.75;;;7.30;99.90;;;;;;5110701;28;20183;-69
2021/05/31 03:00:22;;;;;;;0.10;0.10;;;7.30;99.90;;;;;;5110434;28;20166;-68
2021/05/31 03:02:48;;;;;;;0.35;0.35;;;7.30;99.90;;;;;;5092189;28;20202;-69
2021/05/31 03:05:16;;;;;;;1.25;1.23;;;7.20;99.90;;;;;;5110253;28;20198;-69
2021/05/31 03:07:42;;;;;;;0.30;0.30;;;7.20;99.90;;;;;;5110356;28;20187;-69
2021/05/31 03:10:09;;;;;;;0.40;0.40;;;7.20;99.90;;;;;;5110260;28;20182;-70
2021/05/31 03:12:36;;;;;;;1.88;0.38;;;7.10;99.90;;;;;;5110145;28;20187;-69
2021/05/31 03:15:04;;;;;;;0.75;0.47;;;7.10;99.90;;;;;;5109978;28;20155;-69
2021/05/31 03:17:30;;;;;;;1.10;1.00;;;7.10;99.90;;;;;;5110366;28;20721;-70
2021/05/31 03:19:56;;;;;;;0.85;0.85;;;7.00;99.90;;;;;;5110057;28;20168;-70
2021/05/31 03:22:22;;;;;;;0.65;0.65;;;7.00;99.90;;;;;;5109847;28;20562;-70
2021/05/31 03:24:49;;;;;;;0.30;0.30;;;7.00;99.90;;;;;;5110127;28;20155;-70
2021/05/31 03:27:15;;;;;;;0.90;0.77;;;7.00;99.90;;;;;;5109898;28;20179;-71
2021/05/31 03:29:41;;;;;;;0.75;0.75;;;7.10;99.90;;;;;;5110046;28;20219;-70
2021/05/31 03:32:08;;;;;;;0.32;0.30;;;7.00;99.90;;;;;;5109995;28;20601;-70
2021/05/31 03:34:34;;;;;;;0.22;0.22;;;7.00;99.90;;;;;;5109930;28;20159;-70
2021/05/31 03:37:00;;;;;;;0.30;0.30;;;7.00;99.90;;;;;;5109853;28;20240;-70
2021/05/31 03:39:26;;;;;;;4.00;0.38;;;7.00;99.90;;;;;;5109895;28;20155;-69
2021/05/31 03:41:52;;;;;;;0.17;0.17;;;7.00;99.90;;;;;;5109924;28;20174;-70
2021/05/31 03:44:18;;;;;;;0.40;0.40;;;7.10;99.90;;;;;;5109557;28;20230;-70
2021/05/31 03:46:44;;;;;;;0.47;0.47;;;7.20;99.90;;;;;;5091503;28;20209;-70
2021/05/31 03:49:10;;;;;;;0.20;0.20;;;7.30;99.90;;;;;;5109712;28;20163;-70
2021/05/31 03:51:36;;;;;;;0.85;0.85;;;7.50;99.90;;;;;;5109571;28;20155;-69
2021/05/31 03:54:02;;;;;;;0.55;0.55;;;8.00;99.90;;;;;;5109427;28;20194;-70
2021/05/31 03:56:28;;;;;;;0.32;0.32;;;8.50;99.90;;;;;;5109449;28;20270;-70
2021/05/31 03:58:54;;;;;;;1.25;1.17;;;8.80;99.90;;;;;;5109511;28;20296;-69
2021/05/31 04:01:21;;;;;;;0.10;0.10;;;9.20;99.90;;;;;;5109235;28;20167;-69
2021/05/31 04:03:47;;;;;;;0.10;0.10;;;9.80;99.90;;;;;;5109245;28;20663;-70
2021/05/31 04:11:40;;;;;;;0.35;0.35;;;11.60;99.90;;;;;;5108462;28;20221;-70
2021/05/31 04:14:09;;;;;;;0.10;0.10;;;11.90;99.90;;;;;;5108795;28;20671;-69
2021/05/31 04:16:37;;;;;;;0.10;0.10;;;12.40;99.90;;;;;;5109186;28;20151;-70
2021/05/31 04:19:05;;;;;;;0.20;0.20;;;12.60;99.90;;;;;;5109320;28;20160;-69
2021/05/31 04:21:32;;;;;;;0.85;0.65;;;12.60;99.90;;;;;;5109117;28;20167;-70
2021/05/31 04:23:58;;;;;;;0.10;0.10;;;12.40;99.90;;;;;;5108963;28;20197;-70
2021/05/31 04:26:24;;;;;;;0.47;0.47;;;12.20;99.90;;;;;;5108932;28;20211;-70
2021/05/31 04:28:51;;;;;;;1.40;0.90;;;12.50;99.90;;;;;;5090714;28;20235;-70
2021/05/31 04:31:17;;;;;;;0.20;0.20;;;13.00;99.90;;;;;;5108892;28;20220;-68
2021/05/31 04:33:43;;;;;;;1.90;0.95;;;13.10;99.90;;;;;;5110399;28;20190;-69
2021/05/31 04:36:10;;;;;;;0.68;0.68;;;13.40;99.90;;;;;;5095080;28;20182;-69
2021/05/31 04:38:36;;;;;;;0.30;0.30;;;13.40;99.90;;;;;;5095157;28;20178;-69
2021/05/31 04:41:02;;;;;;;0.45;0.45;;;13.70;99.90;;;;;;5113152;28;20170;-68
2021/05/31 04:43:28;;;;;;;0.65;0.65;;;13.90;99.90;;;;;;5112752;28;20215;-69
2021/05/31 04:45:54;;;;;;;5.93;0.93;;;14.40;99.90;;;;;;5112985;28;20198;-69
2021/05/31 04:48:20;;;;;;;0.40;0.40;;;14.90;99.90;;;;;;5112947;28;20189;-69
2021/05/31 04:50:46;;;;;;;0.63;0.63;;;14.80;99.90;;;;;;5113033;28;20163;-69
2021/05/31 04:53:12;;;;;;;0.30;0.30;;;14.60;99.90;;;;;;5112333;28;20264;-69
2021/05/31 04:55:39;;;;;;;0.25;0.25;;;15.30;99.90;;;;;;5112928;28;20159;-69
2021/05/31 04:58:05;;;;;;;0.00;0.00;;;15.60;99.90;;;;;;5113042;28;20181;-69
2021/05/31 05:00:32;;;;;;;0.43;0.43;;;15.00;99.90;;;;;;5112032;28;20159;-69
2021/05/31 05:02:58;;;;;;;0.52;0.52;;;15.20;99.90;;;;;;5112656;28;20222;-69
2021/05/31 05:05:25;;;;;;;0.13;0.13;;;15.40;99.90;;;;;;5112443;28;20159;-69
2021/05/31 05:07:51;;;;;;;0.60;0.60;;;15.70;99.90;;;;;;5112704;28;20156;-69
2021/05/31 05:10:21;;;;;;;0.40;0.40;;;15.70;99.90;;;;;;5112432;28;20168;-70
2021/05/31 05:12:49;;;;;;;1.27;1.17;;;16.00;99.90;;;;;;5112142;28;20214;-69
2021/05/31 05:15:17;;;;;;;0.85;0.73;;;16.90;99.90;;;;;;5112512;28;20157;-69
2021/05/31 05:17:44;;;;;;;0.17;0.17;;;16.80;99.90;;;;;;5112229;28;20151;-70
2021/05/31 05:20:11;;;;;;;1.50;0.80;;;16.90;99.90;;;;;;5112327;28;20160;-69
2021/05/31 05:22:37;;;;;;;0.20;0.20;;;17.10;99.90;;;;;;5094359;28;20194;-69
2021/05/31 05:25:05;;;;;;;0.10;0.10;;;17.30;99.90;;;;;;5112383;28;20166;-69
2021/05/31 05:27:30;;;;;;;0.30;0.30;;;16.50;99.90;;;;;;5112195;28;20156;-69
2021/05/31 05:29:56;;;;;;;0.50;0.50;;;16.30;99.90;;;;;;5093928;28;20227;-69
2021/05/31 05:32:22;;;;;;;0.35;0.35;;;16.20;99.90;;;;;;5112107;28;20198;-68
2021/05/31 05:34:50;;;;;;;0.47;0.47;;;16.10;99.90;;;;;;5111986;28;20490;-69
2021/05/31 05:37:27;;;;;;;0.52;0.52;;;16.40;99.90;;;;;;5094052;28;20233;-70
2021/05/31 05:47:45;;;;;;;1.45;0.50;;;16.50;99.90;;;;;;5111953;28;20170;-69
2021/05/31 05:50:21;;;;;;;0.25;0.22;;;15.40;99.90;;;;;;5111726;28;20158;-69
2021/05/31 05:52:48;;;;;;;0.20;0.20;;;15.90;99.90;;;;;;5111757;28;20187;-69
2021/05/31 05:55:15;;;;;;;0.70;0.35;;;16.60;99.90;;;;;;5111730;28;20160;-70
2021/05/31 05:57:41;;;;;;;0.75;0.75;;;16.50;99.90;;;;;;5111646;28;20151;-69
2021/05/31 06:00:14;;;;;;;0.50;0.50;;;17.20;99.90;;;;;;5111605;28;20223;-70
2021/05/31 06:02:41;;;;;;;0.57;0.57;;;17.80;99.90;;;;;;5111757;28;20194;-69
2021/05/31 06:05:08;;;;;;;0.30;0.30;;;17.50;99.90;;;;;;5111671;28;20522;-69
2021/05/31 06:07:35;;;;;;;0.20;0.20;;;16.90;99.90;;;;;;5111594;28;20238;-70
2021/05/31 06:10:01;;;;;;;0.20;0.20;;;17.30;99.90;;;;;;5111677;28;20152;-69
2021/05/31 06:12:28;;;;;;;0.10;0.10;;;17.70;99.90;;;;;;5111378;28;20183;-69
2021/05/31 06:14:54;;;;;;;0.20;0.20;;;17.40;99.90;;;;;;5111527;28;20155;-70
2021/05/31 06:17:20;;;;;;;0.20;0.10;;;17.00;99.90;;;;;;5111271;28;20163;-69
2021/05/31 06:19:46;;;;;;;0.05;0.05;;;18.20;99.90;;;;;;5111131;28;20164;-69
2021/05/31 06:22:12;;;;;;;0.10;0.10;;;19.20;99.90;;;;;;5111326;28;20183;-69
2021/05/31 06:24:39;;;;;;;0.22;0.22;;;19.20;99.90;;;;;;5091996;28;20190;-69
2021/05/31 06:27:05;;;;;;;0.08;0.08;;;19.00;99.90;;;;;;5104952;28;20207;-69
2021/05/31 06:29:31;;;;;;;0.30;0.30;;;18.70;99.90;;;;;;5093767;28;20155;-69
2021/05/31 06:31:57;;;;;;;0.00;0.00;;;18.50;99.90;;;;;;5111089;28;20159;-69
2021/05/31 06:34:23;;;;;;;0.10;0.10;;;18.80;99.90;;;;;;5102888;28;20168;-69
2021/05/31 06:36:55;;;;;;;1.08;0.75;;;18.80;99.90;;;;;;5090637;28;20191;-69
2021/05/31 06:39:24;;;;;;;0.20;0.20;;;18.30;99.90;;;;;;5090579;28;20172;-70
2021/05/31 06:41:50;;;;;;;0.20;0.20;;;19.00;99.90;;;;;;5090537;28;20160;-70
2021/05/31 06:44:16;;;;;;;0.10;0.10;;;19.20;99.90;;;;;;5109706;28;20238;-69
2021/05/31 06:46:43;;;;;;;6.70;1.20;;;18.90;99.90;;;;;;5110607;28;20199;-69
2021/05/31 06:49:09;;;;;;;0.20;0.20;;;19.50;99.90;;;;;;5110886;28;20157;-69
2021/05/31 06:51:35;;;;;;;1.90;0.30;;;19.90;99.90;;;;;;5110790;28;20691;-69
2021/05/31 06:54:00;;;;;;;0.20;0.20;;;20.70;99.90;;;;;;5110842;28;20254;-69
2021/05/31 06:56:26;;;;;;;0.20;0.15;;;21.00;99.90;;;;;;5109711;28;20212;-69
2021/05/31 06:58:53;;;;;;;0.17;0.17;;;21.50;99.90;;;;;;5110520;28;20170;-69
2021/05/31 07:01:19;;;;;;;0.40;0.40;;;20.80;99.90;;;;;;5091093;28;20189;-69
2021/05/31 07:03:45;;;;;;;0.40;0.38;;;21.10;99.90;;;;;;5090325;28;20167;-69
2021/05/31 07:06:11;;;;;;;0.10;0.10;;;20.90;99.90;;;;;;5092504;28;20230;-69
2021/05/31 07:08:37;;;;;;;1.02;0.50;;;21.80;99.90;;;;;;5092000;28;20543;-69
2021/05/31 07:11:10;;;;;;;0.47;0.47;;;21.60;99.90;;;;;;5110243;28;20159;-69
2021/05/31 07:13:36;;;;;;;0.20;0.20;;;21.60;99.90;;;;;;5109574;28;20179;-69
2021/05/31 07:16:02;;;;;;;0.82;0.82;;;22.00;99.90;;;;;;5091995;28;20206;-70
2021/05/31 07:18:28;;;;;;;0.15;0.15;;;22.00;99.90;;;;;;5110500;28;20620;-69
2021/05/31 07:20:54;;;;;;;0.22;0.20;;;23.00;99.90;;;;;;5110109;28;20162;-69
2021/05/31 07:23:21;;;;;;;0.40;0.40;;;22.80;99.90;;;;;;5110065;28;20158;-69
2021/05/31 07:25:47;;;;;;;1.20;0.77;;;23.30;99.90;;;;;;5109728;28;20206;-68
2021/05/31 07:28:14;;;;;;;0.63;0.45;;;24.10;99.90;;;;;;5086352;28;20159;-69
2021/05/31 07:30:41;;;;;;;1.08;0.75;;;24.70;99.90;;;;;;5108841;28;20170;-68
2021/05/31 07:33:12;;;;;;;0.73;0.73;;;24.60;99.50;;;;;;5104405;28;20555;-68
2021/05/31 07:35:38;;;;;;;0.73;0.63;;;24.40;99.90;;;;;;5084108;28;20225;-67
2021/05/31 07:38:05;;;;;;;0.47;0.47;;;25.80;97.80;;;;;;5083813;28;20159;-68
2021/05/31 07:40:31;;;;;;;0.10;0.10;;;26.30;97.30;;;;;;5083489;28;20159;-68
2021/05/31 07:42:58;;;;;;;0.43;0.43;;;26.50;97.10;;;;;;5083890;28;20147;-68
2021/05/31 07:45:25;;;;;;;0.13;0.13;;;26.70;96.00;;;;;;5083683;28;20219;-68
2021/05/31 07:47:51;;;;;;;0.75;0.75;;;24.80;98.50;;;;;;5084118;28;20183;-68
2021/05/31 07:50:18;;;;;;;1.48;0.68;;;26.00;97.30;;;;;;5083832;28;20175;-68
2021/05/31 07:52:45;;;;;;;0.55;0.55;;;27.00;97.90;;;;;;5083388;28;20151;-68
2021/05/31 07:55:14;;;;;;;1.15;0.35;;;27.20;95.20;;;;;;5083732;28;20185;-68
2021/05/31 07:57:41;;;;;;;0.15;0.15;;;27.30;96.20;;;;;;5083932;28;20212;-69
2021/05/31 08:00:10;;;;;;;0.20;0.20;;;28.20;93.10;;;;;;5083909;28;20155;-68
2021/05/31 08:02:37;;;;;;;0.17;0.10;;;28.50;92.00;;;;;;5083174;28;20163;-69
2021/05/31 08:05:04;;;;;;;0.52;0.47;;;28.10;93.20;;;;;;5083809;28;20151;-69
2021/05/31 08:07:30;;;;;;;0.10;0.10;;;28.30;93.20;;;;;;5083636;28;20183;-68
2021/05/31 08:09:56;;;;;;;0.35;0.35;;;28.40;93.00;;;;;;5100634;28;20206;-68
2021/05/31 08:12:22;;;;;;;0.30;0.30;;;28.10;92.70;;;;;;5102812;28;20170;-68
2021/05/31 08:14:48;;;;;;;0.55;0.45;;;28.30;91.70;;;;;;5103323;28;20151;-68
2021/05/31 08:17:14;;;;;;;0.40;0.32;;;27.70;93.80;;;;;;5085837;28;20174;-68
2021/05/31 08:19:40;;;;;;;0.38;0.38;;;28.20;92.60;;;;;;5103792;28;20408;-68
2021/05/31 08:22:08;;;;;;;1.02;0.50;;;28.10;92.70;;;;;;5107985;28;20265;-69
2021/05/31 08:24:34;;;;;;;0.60;0.60;;;29.30;91.60;;;;;;5109240;28;20277;-69
2021/05/31 08:27:01;;;;;;;0.40;0.40;;;28.60;90.60;;;;;;5109140;28;20685;-69
2021/05/31 08:29:27;;;;;;;0.57;0.20;;;28.80;91.40;;;;;;5108121;28;20212;-68
2021/05/31 08:31:53;;;;;;;0.20;0.20;;;28.00;89.10;;;;;;5106834;28;20210;-68
2021/05/31 08:34:19;;;;;;;0.98;0.30;;;27.10;89.50;;;;;;5109021;28;20163;-68
2021/05/31 08:36:46;;;;;;;0.13;0.13;;;26.60;90.80;;;;;;5109165;28;20162;-67
2021/05/31 08:39:13;;;;;;;0.20;0.20;;;27.10;90.80;;;;;;5109071;28;20159;-68
2021/05/31 08:41:39;;;;;;;0.85;0.65;;;28.10;91.00;;;;;;5090748;28;20594;-69
2021/05/31 08:44:06;;;;;;;0.40;0.40;;;29.00;91.20;;;;;;5109059;28;20253;-69
2021/05/31 08:46:34;;;;;;;1.35;0.40;;;28.40;89.20;;;;;;5109015;28;20194;-69
2021/05/31 08:49:00;;;;;;;0.35;0.35;;;29.10;85.40;;;;;;5090905;28;20159;-69
2021/05/31 08:52:03;;;;;;;0.10;0.10;;;29.30;86.20;;;;;;5108783;28;20183;-69
2021/05/31 08:54:29;;;;;;;1.13;0.63;;;28.00;84.80;;;;;;5090591;28;20174;-68
2021/05/31 08:56:55;;;;;;;0.13;0.10;;;26.20;89.20;;;;;;5109160;28;20238;-68
2021/05/31 08:59:21;;;;;;;0.10;0.10;;;27.50;85.70;;;;;;5108787;28;20155;-70
2021/05/31 09:01:47;;;;;;;0.20;0.20;;;28.10;86.20;;;;;;5108624;28;20194;-70
2021/05/31 09:04:15;;;;;;;0.40;0.40;;;27.40;86.60;;;;;;5108833;28;20160;-70
2021/05/31 09:07:00;;;;;;;0.10;0.10;;;27.70;88.10;;;;;;5108663;28;20246;-70
2021/05/31 09:09:39;;;;;;;0.90;0.70;;;28.30;85.90;;;;;;5108600;28;20171;-70
2021/05/31 09:12:09;;;;;;;0.43;0.40;;;27.80;84.00;;;;;;5108697;28;20594;-71
2021/05/31 09:14:37;;;;;;;0.30;0.30;;;27.50;86.70;;;;;;5108871;28;20151;-70
2021/05/31 09:17:05;;;;;;;0.10;0.10;;;27.60;85.50;;;;;;5108618;28;20188;-69
2021/05/31 09:19:35;;;;;;;0.20;0.20;;;25.60;87.80;;;;;;5109242;28;20155;-69
2021/05/31 09:22:05;;;;;;;0.40;0.30;;;24.90;88.20;;;;;;5112481;28;20227;-68
2021/05/31 09:24:32;;;;;;;0.50;0.43;;;25.40;91.60;;;;;;5112556;28;20155;-69
2021/05/31 09:27:01;;;;;;;0.10;0.10;;;25.00;90.10;;;;;;5112465;28;20182;-69
2021/05/31 09:29:28;;;;;;;0.10;0.10;;;24.80;90.00;;;;;;5112397;28;20151;-69
2021/05/31 09:32:10;;;;;;;0.17;0.17;;;25.00;90.00;;;;;;5112319;28;20182;-72
2021/05/31 09:34:36;;;;;;;0.25;0.25;;;25.60;90.20;;;;;;5112354;28;20155;-72
2021/05/31 09:37:04;;;;;;;0.47;0.47;;;26.70;90.50;;;;;;5112227;28;20239;-72
2021/05/31 09:39:34;;;;;;;1.00;0.40;;;27.50;87.70;;;;;;5093891;28;20197;-72
2021/05/31 09:42:11;;;;;;;0.30;0.30;;;26.30;85.60;;;;;;5093891;28;20241;-72
2021/05/31 09:44:37;;;;;;;0.10;0.10;;;24.50;88.70;;;;;;5104957;28;20221;-72
2021/05/31 09:47:03;;;;;;;1.77;0.43;;;23.40;90.40;;;;;;5087000;28;20206;-72
2021/05/31 09:49:29;;;;;;;0.13;0.13;;;22.00;91.50;;;;;;5106493;28;20162;-74
2021/05/31 09:52:00;;;;;;;1.55;0.60;;;21.30;92.80;;;;;;5088239;28;20198;-73
2021/05/31 09:54:37;;;;;;;0.10;0.10;;;20.90;92.70;;;;;;5106188;28;20148;-73
2021/05/31 09:57:20;;;;;;;0.32;0.32;;;20.60;93.00;;;;;;5087715;28;20584;-73
2021/05/31 10:00:03;;;;;;;0.20;0.20;;;20.50;93.30;;;;;;5105909;28;20249;-73
2021/05/31 10:08:44;;;;;;;0.20;0.20;;;19.70;94.20;;;;;;5105612;28;20164;-73
2021/05/31 10:10:46;;;;;;;0.10;0.10;;;19.40;94.80;;;;;;5094931;28;20226;-73
2021/05/31 10:13:12;;;;;;;0.20;0.20;;;18.90;94.90;;;;;;5087659;28;20235;-73
2021/05/31 10:15:42;;;;;;;0.20;0.20;;;18.50;96.20;;;;;;5105853;28;20183;-73
2021/05/31 10:18:10;;;;;;;0.35;0.35;;;18.80;95.60;;;;;;5105493;28;20436;-73
2021/05/31 10:20:37;;;;;;;0.28;0.28;;;18.30;95.80;;;;;;5087385;28;20236;-73
2021/05/31 10:23:04;;;;;;;0.40;0.40;;;18.50;96.70;;;;;;5105383;28;20172;-73
2021/05/31 10:25:31;;;;;;;1.02;0.30;;;18.70;97.70;;;;;;5104901;28;20198;-69
2021/05/31 10:28:06;;;;;;;0.75;0.50;;;18.90;95.10;;;;;;5105392;28;20185;-69
2021/05/31 10:30:43;;;;;;;0.10;0.10;;;19.00;95.70;;;;;;5103816;28;20191;-68
2021/05/31 10:33:15;;;;;;;0.28;0.28;;;19.00;96.80;;;;;;5104962;28;21016;-69
2021/05/31 10:35:42;;;;;;;0.30;0.30;;;19.30;96.90;;;;;;5105074;28;21027;-70
2021/05/31 10:38:13;;;;;;;0.93;0.88;;;19.60;95.30;;;;;;5105226;28;20215;-69
2021/05/31 10:40:45;;;;;;;0.10;0.10;;;19.50;96.00;;;;;;5104773;28;20190;-69
2021/05/31 10:43:14;;;;;;;0.15;0.15;;;19.70;95.70;;;;;;5087110;28;20199;-70
2021/05/31 10:45:42;;;;;;;0.10;0.10;;;19.90;95.80;;;;;;5105473;28;20227;-70
2021/05/31 10:48:17;;;;;;;0.38;0.38;;;19.70;96.10;;;;;;5105328;28;20165;-69
2021/05/31 10:50:44;;;;;;;0.10;0.10;;;19.90;95.80;;;;;;5086381;28;20214;-69
2021/05/31 10:55:51;;;;;;;0.22;0.22;;;19.80;95.90;;;;;;5104889;28;20274;-69
2021/05/31 10:58:21;;;;;;;0.35;0.35;;;20.10;96.00;;;;;;5104988;28;20249;-69
2021/05/31 11:01:07;;;;;;;0.63;0.47;;;20.50;96.90;;;;;;5104460;28;20194;-70
2021/05/31 11:03:59;;;;;;;0.55;0.55;;;20.80;96.20;;;;;;5108279;28;20505;-69
2021/05/31 11:06:26;;;;;;;0.88;0.50;;;20.70;96.20;;;;;;5092189;28;20203;-70
2021/05/31 11:08:55;;;;;;;0.85;0.52;;;20.80;95.90;;;;;;5110461;28;20209;-69
2021/05/31 11:11:32;;;;;;;0.52;0.52;;;20.90;95.50;;;;;;5110386;28;20227;-69
2021/05/31 11:14:00;;;;;;;0.10;0.10;;;20.90;95.00;;;;;;5110393;28;20180;-69
2021/05/31 11:16:27;;;;;;;0.52;0.52;;;21.00;95.60;;;;;;5110234;28;20167;-69
2021/05/31 11:18:58;;;;;;;0.22;0.10;;;21.30;95.10;;;;;;5091817;28;20178;-69
2021/05/31 11:21:31;;;;;;;0.10;0.10;;;21.40;94.90;;;;;;5091831;28;20235;-69
2021/05/31 11:24:09;;;;;;;1.45;0.75;;;22.00;94.90;;;;;;5110089;28;20161;-70
2021/05/31 11:26:38;;;;;;;0.20;0.20;;;22.50;94.10;;;;;;5109963;28;20206;-68
2021/05/31 11:29:07;;;;;;;0.30;0.30;;;23.40;93.20;;;;;;5091967;28;20174;-70
2021/05/31 11:31:34;;;;;;;0.35;0.35;;;24.10;93.80;;;;;;5089972;28;20203;-70
2021/05/31 11:34:00;;;;;;;0.30;0.30;;;24.10;92.70;;;;;;5108592;28;20162;-69
2021/05/31 11:36:32;;;;;;;0.10;0.10;;;23.30;94.10;;;;;;5109579;28;20167;-69
2021/05/31 11:39:00;;;;;;;14.32;0.77;;;22.70;93.20;;;;;;5108690;28;20263;-69
2021/05/31 11:41:46;;;;;;;0.90;0.52;;;22.30;93.80;;;;;;5109781;28;20181;-69
2021/05/31 11:44:34;;;;;;;0.20;0.20;;;21.80;94.20;;;;;;5109343;28;20222;-69
2021/05/31 11:47:02;;;;;;;1.25;0.43;;;21.60;95.30;;;;;;5088856;28;20214;-69
2021/05/31 11:49:30;;;;;;;0.35;0.35;;;21.80;94.50;;;;;;5109344;28;20278;-69
2021/05/31 11:52:10;;;;;;;0.00;0.00;;;22.70;94.90;;;;;;5109504;28;20159;-69
2021/05/31 11:54:42;;;;;;;0.68;0.68;;;22.90;93.20;;;;;;5090822;28;20186;-70
2021/05/31 11:57:13;;;;;;;0.10;0.10;;;23.90;95.50;;;;;;5109576;28;20563;-70
2021/05/31 11:59:41;;;;;;;0.10;0.10;;;23.70;92.10;;;;;;5109360;28;20199;-69
2021/05/31 12:02:09;;;;;;;0.57;0.30;;;22.80;94.50;;;;;;5109052;28;20155;-69
2021/05/31 12:04:36;;;;;;;0.80;0.38;;;22.80;93.30;;;;;;5109233;28;20182;-69
2021/05/31 12:07:07;;;;;;;0.52;0.40;;;22.30;93.40;;;;;;5109154;28;20182;-69
2021/05/31 12:09:42;;;;;;;0.20;0.20;;;22.00;94.80;;;;;;5109007;28;20261;-69
2021/05/31 12:12:14;;;;;;;0.30;0.30;;;20.70;94.60;;;;;;5090293;28;20569;-69
2021/05/31 12:14:55;;;;;;;0.10;0.10;;;19.90;95.80;;;;;;5091188;28;20183;-69
2021/05/31 12:17:24;;;;;;;0.57;0.57;;;19.50;96.90;;;;;;5108702;28;20186;-68
2021/05/31 12:19:51;;;;;;;0.10;0.10;;;19.40;97.30;;;;;;5090964;28;20182;-69
2021/05/31 12:22:19;;;;;;;0.45;0.45;;;19.50;97.80;;;;;;5109035;28;20206;-69
2021/05/31 12:24:47;;;;;;;0.25;0.25;;;19.30;97.00;;;;;;5090949;28;20208;-69
2021/05/31 12:27:14;;;;;;;0.20;0.20;;;19.50;97.20;;;;;;5090888;28;20202;-68
2021/05/31 12:29:43;;;;;;;1.70;0.68;;;19.80;96.60;;;;;;5109392;28;20179;-70
2021/05/31 12:32:12;;;;;;;0.22;0.22;;;19.70;96.90;;;;;;5102901;28;20195;-69
2021/05/31 12:34:40;;;;;;;0.50;0.30;;;19.60;96.80;;;;;;5101110;28;20159;-69
2021/05/31 12:37:08;;;;;;;0.32;0.32;;;19.60;97.00;;;;;;5108307;28;20239;-69
2021/05/31 12:39:35;;;;;;;0.52;0.52;;;19.60;97.70;;;;;;5108522;28;20212;-69
2021/05/31 12:42:04;;;;;;;0.35;0.32;;;19.80;97.00;;;;;;5108697;28;20202;-69
2021/05/31 12:44:30;;;;;;;0.10;0.10;;;20.30;96.20;;;;;;5108430;28;20219;-69
2021/05/31 12:47:18;;;;;;;0.25;0.25;;;20.40;95.60;;;;;;5107478;28;20233;-70
2021/05/31 12:49:53;;;;;;;0.65;0.55;;;19.90;96.00;;;;;;5107517;28;20182;-71
2021/05/31 12:52:30;;;;;;;0.10;0.10;;;19.70;96.40;;;;;;5108806;28;20191;-69
2021/05/31 12:55:10;;;;;;;0.10;0.10;;;19.30;96.00;;;;;;5110420;28;20151;-71
2021/05/31 12:57:39;;;;;;;0.03;0.03;;;19.70;97.00;;;;;;5094618;28;20177;-69
2021/05/31 13:00:17;;;;;;;0.28;0.20;;;20.10;96.70;;;;;;5112572;28;20164;-70
2021/05/31 13:02:58;;;;;;;0.20;0.20;;;20.30;96.60;;;;;;5112430;28;20190;-69
2021/05/31 13:05:26;;;;;;;2.10;0.25;;;20.80;97.10;;;;;;5112735;28;20179;-71
2021/05/31 13:07:55;;;;;;;0.25;0.25;;;21.00;95.70;;;;;;5112621;28;20175;-70
2021/05/31 13:10:33;;;;;;;0.28;0.28;;;21.10;95.40;;;;;;5112760;28;20183;-71
2021/05/31 13:13:13;;;;;;;0.20;0.20;;;20.70;96.50;;;;;;5112388;28;20221;-72
2021/05/31 13:15:42;;;;;;;0.30;0.30;;;20.50;96.50;;;;;;5093930;28;20163;-69
2021/05/31 13:18:23;;;;;;;1.05;0.60;;;20.80;96.50;;;;;;5093954;28;20167;-71
2021/05/31 13:20:51;;;;;;;0.10;0.10;;;21.50;95.70;;;;;;5112279;28;20152;-69
2021/05/31 13:23:19;;;;;;;0.30;0.30;;;21.80;94.90;;;;;;5111860;28;20178;-70